createdAt,value
2018-04-15T00:02:04.635Z,8.63
2018-04-15T00:04:32.887Z,7.73
2018-04-15T00:07:00.468Z,6.70
2018-04-15T00:09:28.959Z,6.50
2018-04-15T00:11:58.138Z,6.47
2018-04-15T00:14:26.334Z,5.87
2018-04-15T00:16:53.877Z,6.57
2018-04-15T00:19:21.369Z,6.57
2018-04-15T00:21:49.656Z,5.70
2018-04-15T00:24:18.075Z,5.77
2018-04-15T00:26:46.499Z,6.60
2018-04-15T00:29:14.017Z,6.03
2018-04-15T00:31:59.489Z,4.43
2018-04-15T00:34:27.964Z,7.20
2018-04-15T00:36:55.513Z,7.10
2018-04-15T00:39:23.840Z,4.93
2018-04-15T00:41:51.414Z,4.93
2018-04-15T00:46:59.586Z,6.23
2018-04-15T00:49:27.105Z,6.10
2018-04-15T00:51:54.600Z,5.70
2018-04-15T00:54:22.150Z,5.53
2018-04-15T00:56:49.672Z,7.57
2018-04-15T00:59:17.169Z,7.30
2018-04-15T01:01:45.782Z,7.43
2018-04-15T01:04:13.293Z,5.67
2018-04-15T01:06:40.823Z,7.23
2018-04-15T01:09:09.343Z,9.80
2018-04-15T01:11:36.870Z,4.70
2018-04-15T01:14:05.164Z,5.40
2018-04-15T01:16:32.739Z,5.43
2018-04-15T01:19:02.229Z,4.70
2018-04-15T01:21:30.485Z,4.03
2018-04-15T01:23:58.917Z,7.43
2018-04-15T01:26:26.439Z,6.43
2018-04-15T01:28:53.950Z,6.37
2018-04-15T01:31:24.438Z,6.97
2018-04-15T01:33:52.710Z,5.80
2018-04-15T01:36:20.204Z,8.60
2018-04-15T01:38:47.743Z,6.40
2018-04-15T01:41:16.284Z,5.43
2018-04-15T01:43:45.796Z,4.30
2018-04-15T01:46:13.379Z,5.57
2018-04-15T01:48:40.943Z,5.00
2018-04-15T01:51:09.419Z,6.80
2018-04-15T01:53:36.943Z,5.73
2018-04-15T01:56:05.439Z,5.00
2018-04-15T01:58:32.999Z,5.00
2018-04-15T02:01:00.529Z,4.60
2018-04-15T02:03:28.016Z,5.20
2018-04-15T02:05:55.522Z,5.87
2018-04-15T02:08:23.127Z,4.93
2018-04-15T02:10:51.433Z,5.30
2018-04-15T02:13:36.882Z,5.17
2018-04-15T02:18:47.378Z,4.53
2018-04-15T02:21:14.915Z,6.37
2018-04-15T02:23:42.463Z,6.83
2018-04-15T02:26:10.019Z,6.97
2018-04-15T02:28:37.514Z,4.77
2018-04-15T02:31:06.954Z,4.60
2018-04-15T02:33:34.625Z,4.53
2018-04-15T02:36:02.888Z,3.50
2018-04-15T02:38:30.434Z,7.10
2018-04-15T02:40:58.005Z,3.43
2018-04-15T02:43:25.558Z,4.97
2018-04-15T02:45:53.183Z,7.37
2018-04-15T02:48:20.788Z,7.40
2018-04-15T02:50:48.306Z,3.43
2018-04-15T02:53:15.942Z,3.30
2018-04-15T02:55:43.495Z,4.00
2018-04-15T02:58:13.003Z,4.37
2018-04-15T03:00:40.574Z,4.30
2018-04-15T03:03:09.035Z,3.67
2018-04-15T03:05:36.573Z,3.43
2018-04-15T03:08:04.098Z,3.07
2018-04-15T03:10:31.890Z,6.63
2018-04-15T03:13:00.160Z,5.67
2018-04-15T03:15:28.269Z,4.90
2018-04-15T03:17:56.780Z,3.57
2018-04-15T03:20:24.354Z,3.77
2018-04-15T03:22:52.084Z,6.13
2018-04-15T03:25:20.553Z,5.60
2018-04-15T03:27:48.145Z,3.97
2018-04-15T03:30:15.687Z,3.73
2018-04-15T03:32:43.216Z,6.50
2018-04-15T03:35:10.715Z,4.03
2018-04-15T03:37:39.902Z,3.47
2018-04-15T03:40:07.504Z,6.03
2018-04-15T03:42:35.058Z,3.77
2018-04-15T03:45:02.623Z,7.80
2018-04-15T03:47:31.245Z,3.83
2018-04-15T03:49:58.841Z,3.33
2018-04-15T03:52:26.341Z,5.67
2018-04-15T03:54:54.654Z,5.00
2018-04-15T03:57:22.228Z,4.90
2018-04-15T03:59:49.824Z,5.20
2018-04-15T04:02:17.340Z,4.40
2018-04-15T04:04:44.863Z,6.20
2018-04-15T04:07:12.388Z,6.07
2018-04-15T04:09:40.099Z,4.53
2018-04-15T04:12:07.599Z,5.13
2018-04-15T04:14:35.131Z,5.47
2018-04-15T04:17:03.075Z,4.23
2018-04-15T04:19:43.560Z,5.83
2018-04-15T04:22:22.996Z,4.40
2018-04-15T04:25:02.276Z,6.03
2018-04-15T04:27:29.918Z,5.60
2018-04-15T04:29:57.460Z,5.43
2018-04-15T04:32:25.054Z,4.53
2018-04-15T04:34:52.661Z,3.60
2018-04-15T04:37:20.246Z,6.90
2018-04-15T04:39:48.696Z,12.17
2018-04-15T04:42:16.300Z,18.10
2018-04-15T04:44:43.814Z,15.43
2018-04-15T04:47:11.312Z,6.27
2018-04-15T04:49:38.953Z,12.97
2018-04-15T04:52:06.523Z,10.27
2018-04-15T04:54:34.042Z,7.80
2018-04-15T04:57:01.638Z,6.73
2018-04-15T04:59:29.205Z,7.37
2018-04-15T05:01:56.703Z,6.37
2018-04-15T05:04:25.181Z,8.07
2018-04-15T05:06:52.681Z,4.90
2018-04-15T05:09:20.328Z,7.47
2018-04-15T05:11:47.925Z,5.33
2018-04-15T05:14:16.180Z,4.17
2018-04-15T05:16:43.853Z,7.03
2018-04-15T05:19:11.729Z,7.57
2018-04-15T05:21:39.249Z,12.60
2018-04-15T05:24:06.914Z,16.60
2018-04-15T05:26:34.532Z,18.93
2018-04-15T05:29:02.094Z,17.20
2018-04-15T05:31:30.600Z,27.37
2018-04-15T05:33:58.159Z,25.50
2018-04-15T05:36:26.449Z,9.60
2018-04-15T05:38:54.720Z,4.77
2018-04-15T05:41:22.296Z,8.53
2018-04-15T05:43:50.560Z,6.17
2018-04-15T05:46:18.143Z,5.40
2018-04-15T05:48:46.461Z,7.13
2018-04-15T05:51:13.957Z,10.10
2018-04-15T05:53:41.473Z,7.73
2018-04-15T05:56:09.003Z,8.03
2018-04-15T05:58:36.550Z,8.10
2018-04-15T06:01:04.108Z,7.40
2018-04-15T06:03:31.685Z,11.23
2018-04-15T06:05:59.228Z,8.13
2018-04-15T06:08:26.745Z,15.80
2018-04-15T06:10:55.063Z,14.03
2018-04-15T06:13:22.562Z,20.47
2018-04-15T06:15:50.079Z,12.97
2018-04-15T06:18:17.715Z,18.53
2018-04-15T06:20:46.006Z,9.33
2018-04-15T06:23:14.270Z,16.70
2018-04-15T06:25:41.792Z,7.17
2018-04-15T06:28:09.318Z,14.00
2018-04-15T06:30:37.605Z,5.00
2018-04-15T06:33:05.369Z,6.07
2018-04-15T06:35:33.633Z,10.27
2018-04-15T06:38:01.131Z,16.03
2018-04-15T06:40:28.671Z,7.80
2018-04-15T06:42:57.062Z,8.90
2018-04-15T06:45:24.575Z,17.20
2018-04-15T06:47:52.117Z,15.53
2018-04-15T06:50:19.640Z,6.73
2018-04-15T06:52:47.916Z,15.70
2018-04-15T06:55:16.212Z,15.03
2018-04-15T06:57:44.678Z,12.90
2018-04-15T07:00:13.133Z,8.27
2018-04-15T07:02:40.659Z,4.97
2018-04-15T07:05:08.191Z,6.27
2018-04-15T07:07:35.768Z,6.03
2018-04-15T07:10:03.388Z,4.80
2018-04-15T07:12:30.966Z,4.27
2018-04-15T07:14:58.541Z,6.27
2018-04-15T07:17:26.999Z,4.83
2018-04-15T07:19:54.491Z,6.13
2018-04-15T07:22:21.997Z,6.83
2018-04-15T07:24:49.652Z,10.33
2018-04-15T07:27:17.251Z,7.00
2018-04-15T07:29:44.749Z,7.50
2018-04-15T07:32:12.372Z,9.13
2018-04-15T07:34:40.721Z,9.30
2018-04-15T07:37:08.222Z,8.33
2018-04-15T07:39:35.813Z,7.93
2018-04-15T07:42:03.485Z,7.93
2018-04-15T07:44:31.045Z,9.53
2018-04-15T07:46:58.604Z,7.67
2018-04-15T07:49:27.134Z,12.83
2018-04-15T07:51:55.487Z,6.40
2018-04-15T07:54:23.804Z,7.10
2018-04-15T07:56:51.353Z,6.83
2018-04-15T08:02:18.599Z,8.57
2018-04-15T08:04:46.176Z,6.50
2018-04-15T08:07:13.691Z,7.30
2018-04-15T08:09:42.112Z,14.33
2018-04-15T08:12:09.733Z,17.47
2018-04-15T08:14:37.275Z,6.60
2018-04-15T08:17:05.822Z,7.43
2018-04-15T08:19:33.420Z,17.33
2018-04-15T08:22:00.995Z,32.27
2018-04-15T08:24:29.409Z,17.00
2018-04-15T08:26:57.955Z,9.73
2018-04-15T08:29:25.540Z,47.23
2018-04-15T08:31:53.042Z,15.83
2018-04-15T08:34:20.664Z,6.80
2018-04-15T08:36:48.241Z,5.53
2018-04-15T08:39:17.562Z,6.20
2018-04-15T08:41:45.143Z,5.27
2018-04-15T08:44:12.740Z,8.00
2018-04-15T08:46:40.350Z,6.00
2018-04-15T08:49:07.870Z,6.93
2018-04-15T08:51:35.437Z,7.30
2018-04-15T08:54:03.086Z,5.27
2018-04-15T08:56:30.650Z,5.00
2018-04-15T08:58:58.684Z,7.07
2018-04-15T09:01:27.155Z,11.00
2018-04-15T09:03:55.437Z,6.17
2018-04-15T09:06:22.989Z,6.23
2018-04-15T09:08:50.583Z,7.53
2018-04-15T09:11:18.161Z,7.27
2018-04-15T09:14:04.386Z,12.17
2018-04-15T09:16:32.060Z,7.23
2018-04-15T09:18:59.572Z,6.10
2018-04-15T09:21:27.132Z,6.67
2018-04-15T09:26:35.870Z,6.07
2018-04-15T09:29:04.150Z,6.50
2018-04-15T09:31:33.370Z,7.03
2018-04-15T09:34:00.881Z,9.67
2018-04-15T09:36:29.337Z,10.80
2018-04-15T09:38:56.969Z,6.93
2018-04-15T09:41:24.485Z,7.47
2018-04-15T09:43:52.085Z,7.17
2018-04-15T09:46:19.664Z,12.30
2018-04-15T09:48:48.935Z,6.97
2018-04-15T09:51:16.502Z,9.23
2018-04-15T09:53:44.050Z,7.23
2018-04-15T09:56:11.650Z,7.90
2018-04-15T09:58:39.944Z,8.97
2018-04-15T10:01:07.466Z,6.87
2018-04-15T10:03:35.882Z,7.83
2018-04-15T10:06:03.424Z,8.40
2018-04-15T10:08:30.986Z,10.17
2018-04-15T10:11:17.382Z,9.80
2018-04-15T10:13:44.899Z,9.00
2018-04-15T10:16:12.396Z,7.53
2018-04-15T10:18:40.816Z,8.80
2018-04-15T10:21:09.095Z,12.73
2018-04-15T10:23:36.689Z,8.70
2018-04-15T10:26:04.302Z,7.93
2018-04-15T10:28:31.803Z,7.93
2018-04-15T10:30:59.305Z,11.03
2018-04-15T10:33:26.837Z,9.80
2018-04-15T10:35:54.422Z,9.33
2018-04-15T10:38:22.865Z,6.97
2018-04-15T10:40:51.163Z,9.53
2018-04-15T10:43:18.673Z,8.80
2018-04-15T10:45:46.164Z,9.53
2018-04-15T10:48:15.746Z,8.70
2018-04-15T10:50:43.281Z,7.73
2018-04-15T10:53:10.853Z,10.33
2018-04-15T10:55:38.430Z,11.97
2018-04-15T10:58:05.938Z,8.67
2018-04-15T11:00:34.364Z,9.70
2018-04-15T11:03:01.940Z,14.87
2018-04-15T11:05:30.431Z,8.23
2018-04-15T11:07:58.875Z,9.80
2018-04-15T11:10:29.079Z,7.93
2018-04-15T11:12:57.501Z,11.40
2018-04-15T11:15:25.031Z,8.10
2018-04-15T11:17:52.606Z,12.23
2018-04-15T11:20:21.880Z,9.03
2018-04-15T11:22:49.400Z,9.50
2018-04-15T11:25:16.915Z,10.93
2018-04-15T11:27:44.431Z,9.67
2018-04-15T11:30:31.802Z,8.53
2018-04-15T11:36:03.211Z,9.00
2018-04-15T11:38:30.728Z,7.60
2018-04-15T11:40:59.181Z,8.47
2018-04-15T11:43:27.771Z,9.43
2018-04-15T11:46:14.889Z,10.90
2018-04-15T11:48:42.474Z,8.60
2018-04-15T11:51:09.989Z,14.73
2018-04-15T11:53:38.450Z,8.47
2018-04-15T11:56:05.998Z,11.63
2018-04-15T11:58:34.298Z,9.23
2018-04-15T12:01:01.895Z,11.93
2018-04-15T12:03:30.383Z,13.17
2018-04-15T12:06:16.496Z,8.23
2018-04-15T12:08:44.064Z,8.30
2018-04-15T12:13:52.762Z,10.87
2018-04-15T12:16:20.274Z,9.03
2018-04-15T12:18:47.839Z,9.97
2018-04-15T12:21:15.451Z,11.17
2018-04-15T12:23:43.006Z,10.53
2018-04-15T12:26:11.076Z,9.83
2018-04-15T12:28:38.744Z,11.83
2018-04-15T12:31:06.239Z,10.13
2018-04-15T12:33:33.791Z,12.03
2018-04-15T12:36:02.332Z,11.07
2018-04-15T12:38:29.924Z,10.10
2018-04-15T12:40:58.477Z,12.13
2018-04-15T12:43:25.993Z,14.13
2018-04-15T12:45:55.405Z,12.57
2018-04-15T12:48:22.959Z,11.77
2018-04-15T12:50:50.601Z,13.10
2018-04-15T12:53:18.163Z,12.20
2018-04-15T12:55:46.436Z,14.10
2018-04-15T12:58:14.160Z,16.90
2018-04-15T13:00:41.663Z,15.03
2018-04-15T13:03:09.173Z,12.93
2018-04-15T13:05:36.758Z,13.87
2018-04-15T13:08:05.313Z,14.00
2018-04-15T13:10:32.818Z,14.27
2018-04-15T13:13:02.267Z,19.57
2018-04-15T13:15:31.455Z,17.90
2018-04-15T13:17:58.985Z,17.97
2018-04-15T13:20:26.584Z,18.93
2018-04-15T13:22:55.038Z,16.93
2018-04-15T13:25:23.505Z,14.47
2018-04-15T13:27:51.067Z,16.30
2018-04-15T13:30:18.613Z,18.27
2018-04-15T13:32:46.987Z,18.00
2018-04-15T13:35:14.587Z,15.07
2018-04-15T13:37:42.122Z,17.03
2018-04-15T13:40:09.668Z,17.43
2018-04-15T13:42:38.170Z,16.00
2018-04-15T13:45:05.693Z,19.37
2018-04-15T13:47:34.081Z,14.40
2018-04-15T13:50:01.863Z,17.87
2018-04-15T13:52:29.362Z,16.30
2018-04-15T13:54:56.901Z,17.33
2018-04-15T13:57:25.205Z,14.00
2018-04-15T13:59:52.743Z,18.47
2018-04-15T14:02:20.320Z,16.13
2018-04-15T14:04:48.153Z,17.00
2018-04-15T14:07:15.683Z,17.57
2018-04-15T14:09:43.195Z,19.40
2018-04-15T14:12:10.737Z,17.03
2018-04-15T14:14:39.147Z,15.77
2018-04-15T14:17:06.664Z,19.90
2018-04-15T14:19:35.014Z,16.20
2018-04-15T14:22:02.524Z,18.97
2018-04-15T14:24:30.970Z,20.37
2018-04-15T14:26:58.590Z,19.77
2018-04-15T14:29:26.983Z,16.17
2018-04-15T14:31:55.413Z,15.23
2018-04-15T14:34:22.941Z,16.80
2018-04-15T14:39:49.734Z,22.67
2018-04-15T14:42:17.354Z,17.33
2018-04-15T14:44:44.870Z,16.50
2018-04-15T14:47:12.536Z,16.80
2018-04-15T14:49:40.163Z,16.97
2018-04-15T14:52:07.689Z,18.37
2018-04-15T14:54:35.357Z,18.70
2018-04-15T14:57:02.920Z,19.37
2018-04-15T14:59:30.479Z,21.07
2018-04-15T15:01:58.038Z,19.73
2018-04-15T15:04:25.730Z,16.47
2018-04-15T15:06:54.067Z,19.13
2018-04-15T15:09:21.609Z,18.90
2018-04-15T15:11:49.877Z,19.23
2018-04-15T15:14:17.391Z,21.80
2018-04-15T15:16:45.037Z,19.20
2018-04-15T15:19:12.543Z,17.87
2018-04-15T15:21:58.773Z,18.10
2018-04-15T15:24:27.036Z,22.27
2018-04-15T15:29:35.725Z,22.63
2018-04-15T15:32:03.313Z,18.60
2018-04-15T15:34:34.867Z,19.53
2018-04-15T15:37:02.413Z,19.40
2018-04-15T15:39:30.842Z,16.67
2018-04-15T15:41:58.368Z,18.40
2018-04-15T15:44:25.976Z,17.47
2018-04-15T15:46:55.443Z,17.10
2018-04-15T15:49:24.005Z,18.27
2018-04-15T15:51:52.598Z,20.37
2018-04-15T15:54:20.147Z,19.07
2018-04-15T15:56:48.568Z,16.63
2018-04-15T15:59:16.121Z,17.80
2018-04-15T16:01:43.661Z,20.20
2018-04-15T16:04:11.225Z,19.87
2018-04-15T16:06:38.815Z,16.67
2018-04-15T16:12:07.227Z,22.00
2018-04-15T16:14:35.666Z,19.70
2018-04-15T16:17:03.242Z,17.10
2018-04-15T16:19:32.519Z,16.63
2018-04-15T16:22:00.855Z,17.33
2018-04-15T16:24:28.365Z,19.67
2018-04-15T16:26:56.643Z,19.27
2018-04-15T16:29:24.916Z,15.17
2018-04-15T16:31:52.456Z,20.00
2018-04-15T16:34:20.927Z,19.23
2018-04-15T16:36:49.433Z,17.87
2018-04-15T16:39:18.732Z,35.33
2018-04-15T16:41:47.222Z,17.70
2018-04-15T16:44:14.799Z,22.37
2018-04-15T16:46:42.418Z,19.13
2018-04-15T16:49:09.987Z,18.10
2018-04-15T16:51:37.491Z,19.17
2018-04-15T16:54:05.105Z,19.30
2018-04-15T16:56:32.629Z,17.47
2018-04-15T16:59:00.908Z,18.47
2018-04-15T17:01:28.509Z,19.50
2018-04-15T17:03:56.061Z,20.03
2018-04-15T17:06:24.330Z,19.17
2018-04-15T17:08:52.666Z,16.13
2018-04-15T17:11:20.220Z,26.50
2018-04-15T17:13:47.715Z,23.47
2018-04-15T17:16:15.232Z,18.10
2018-04-15T17:18:44.922Z,15.60
2018-04-15T17:21:14.104Z,13.43
2018-04-15T17:23:41.608Z,13.30
2018-04-15T17:26:09.311Z,11.80
2018-04-15T17:28:37.758Z,12.17
2018-04-15T17:31:05.353Z,12.53
2018-04-15T17:33:32.881Z,13.17
2018-04-15T17:36:01.391Z,11.00
2018-04-15T17:38:28.918Z,13.73
2018-04-15T17:40:57.282Z,11.73
2018-04-15T17:43:24.777Z,16.37
2018-04-15T17:45:53.983Z,13.77
2018-04-15T17:48:21.686Z,11.33
2018-04-15T17:50:49.205Z,16.07
2018-04-15T17:53:16.721Z,14.40
2018-04-15T17:55:44.283Z,13.43
2018-04-15T17:58:11.894Z,13.13
2018-04-15T18:00:40.180Z,11.17
2018-04-15T18:03:08.484Z,11.30
2018-04-15T18:05:35.998Z,12.83
2018-04-15T18:08:03.547Z,11.23
2018-04-15T18:10:31.255Z,16.97
2018-04-15T18:12:59.529Z,11.33
2018-04-15T18:15:27.895Z,11.77
2018-04-15T18:17:56.337Z,12.57
2018-04-15T18:20:23.867Z,12.33
2018-04-15T18:22:52.161Z,14.83
2018-04-15T18:25:19.708Z,13.60
2018-04-15T18:27:47.265Z,12.30
2018-04-15T18:30:15.751Z,13.10
2018-04-15T18:32:43.409Z,10.87
2018-04-15T18:35:11.727Z,9.30
2018-04-15T18:37:39.271Z,13.97
2018-04-15T18:40:07.560Z,11.77
2018-04-15T18:42:35.117Z,8.63
2018-04-15T18:45:04.335Z,12.10
2018-04-15T18:47:31.914Z,8.27
2018-04-15T18:50:00.342Z,11.60
2018-04-15T18:52:46.616Z,9.77
2018-04-15T18:55:15.151Z,9.93
2018-04-15T18:57:43.529Z,9.03
2018-04-15T19:00:11.081Z,7.30
2018-04-15T19:02:38.597Z,7.47
2018-04-15T19:05:07.032Z,8.40
2018-04-15T19:07:34.595Z,9.80
2018-04-15T19:10:02.131Z,7.73
2018-04-15T19:12:29.652Z,7.27
2018-04-15T19:14:57.207Z,8.10
2018-04-15T19:17:25.549Z,7.07
2018-04-15T19:19:53.071Z,8.30
2018-04-15T19:22:20.633Z,7.83
2018-04-15T19:27:46.412Z,10.50
2018-04-15T19:30:14.109Z,12.73
2018-04-15T19:32:42.516Z,9.33
2018-04-15T19:35:10.084Z,17.53
2018-04-15T19:37:37.730Z,14.90
2018-04-15T19:40:06.246Z,13.40
2018-04-15T19:42:33.798Z,10.37
2018-04-15T19:45:01.291Z,10.53
2018-04-15T19:47:28.925Z,10.43
2018-04-15T19:49:56.508Z,12.40
2018-04-15T19:52:25.020Z,12.90
2018-04-15T19:54:52.574Z,12.77
2018-04-15T19:57:20.120Z,10.93
2018-04-15T19:59:47.664Z,12.10
2018-04-15T20:02:15.203Z,10.50
2018-04-15T20:04:42.791Z,9.53
2018-04-15T20:07:10.307Z,10.67
2018-04-15T20:09:37.860Z,13.00
2018-04-15T20:12:05.608Z,10.47
2018-04-15T20:14:35.043Z,14.33
2018-04-15T20:17:02.628Z,17.53
2018-04-15T20:19:30.992Z,8.43
2018-04-15T20:21:58.604Z,9.77
2018-04-15T20:24:26.979Z,12.97
2018-04-15T20:26:55.281Z,10.60
2018-04-15T20:29:22.861Z,14.10
2018-04-15T20:31:52.461Z,14.77
2018-04-15T20:34:20.930Z,10.17
2018-04-15T20:36:49.310Z,10.37
2018-04-15T20:39:18.514Z,11.50
2018-04-15T20:41:46.826Z,13.53
2018-04-15T20:44:14.532Z,13.17
2018-04-15T20:46:42.069Z,15.43
2018-04-15T20:49:09.675Z,13.00
2018-04-15T20:51:37.251Z,11.87
2018-04-15T20:54:05.783Z,12.30
2018-04-15T20:56:33.361Z,13.03
2018-04-15T20:59:00.904Z,10.80
2018-04-15T21:01:28.419Z,13.97
2018-04-15T21:03:56.843Z,17.10
2018-04-15T21:06:24.438Z,15.03
2018-04-15T21:08:51.961Z,11.53
2018-04-15T21:11:20.298Z,16.57
2018-04-15T21:13:47.859Z,13.33
2018-04-15T21:16:15.474Z,15.83
2018-04-15T21:18:43.056Z,14.63
2018-04-15T21:21:10.560Z,15.23
2018-04-15T21:23:38.088Z,14.83
2018-04-15T21:26:06.401Z,22.50
2018-04-15T21:28:33.961Z,12.30
2018-04-15T21:31:02.498Z,13.20
2018-04-15T21:33:30.033Z,15.73
2018-04-15T21:35:57.546Z,11.27
2018-04-15T21:38:26.106Z,15.30
2018-04-15T21:40:54.395Z,13.77
2018-04-15T21:43:23.913Z,11.03
2018-04-15T21:45:52.336Z,14.83
2018-04-15T21:48:20.818Z,15.33
2018-04-15T21:50:49.312Z,15.23
2018-04-15T21:53:17.878Z,12.70
2018-04-15T21:55:45.418Z,14.63
2018-04-15T21:58:13.023Z,14.60
2018-04-15T22:00:40.655Z,10.33
2018-04-15T22:03:08.181Z,12.60
2018-04-15T22:05:36.752Z,10.20
2018-04-15T22:08:04.334Z,10.13
2018-04-15T22:10:31.888Z,9.73
2018-04-15T22:13:07.978Z,11.13
2018-04-15T22:15:36.277Z,14.40
2018-04-15T22:18:03.836Z,12.90
2018-04-15T22:20:32.441Z,11.93
2018-04-15T22:23:01.047Z,10.23
2018-04-15T22:25:28.626Z,9.80
2018-04-15T22:27:56.203Z,12.87
2018-04-15T22:30:23.724Z,8.27
2018-04-15T22:32:51.302Z,10.77
2018-04-15T22:35:19.718Z,9.13
2018-04-15T22:37:47.449Z,8.23
2018-04-15T22:40:15.001Z,7.50
2018-04-15T22:42:42.540Z,14.00
2018-04-15T22:45:10.896Z,9.30
2018-04-15T22:47:46.020Z,9.60
2018-04-15T22:50:18.181Z,11.27
2018-04-15T22:52:45.673Z,12.23
2018-04-15T22:55:13.212Z,9.90
2018-04-15T22:57:40.781Z,7.67
2018-04-15T23:00:08.379Z,6.97
2018-04-15T23:02:36.828Z,6.83
2018-04-15T23:05:05.306Z,7.67
2018-04-15T23:07:32.806Z,9.00
2018-04-15T23:10:01.212Z,8.17
2018-04-15T23:12:28.966Z,6.30
2018-04-15T23:14:57.239Z,7.40
2018-04-15T23:17:25.532Z,7.33
2018-04-15T23:19:53.811Z,9.30
2018-04-15T23:22:22.202Z,10.03
2018-04-15T23:24:51.461Z,6.73
2018-04-15T23:27:19.098Z,8.07
2018-04-15T23:29:46.615Z,4.00
2018-04-15T23:32:14.965Z,8.27
2018-04-15T23:34:43.692Z,10.87
2018-04-15T23:37:11.211Z,7.77
2018-04-15T23:39:38.701Z,12.13
2018-04-15T23:42:06.306Z,10.67
2018-04-15T23:44:33.920Z,9.00
2018-04-15T23:47:01.443Z,11.50
2018-04-15T23:49:29.945Z,8.93
2018-04-15T23:51:57.479Z,12.77
2018-04-15T23:54:25.812Z,9.70
2018-04-15T23:56:55.145Z,9.70
2018-04-15T23:59:22.711Z,9.63
